sensor_id;sensor_type;location;lat;lon;timestamp;temperature;humidity
32296;DHT22;18781;51.550;5.418;2023-04-25T00:01:59;10.60;65.20
32296;DHT22;18781;51.550;5.418;2023-04-25T00:04:25;10.60;65.20
32296;DHT22;18781;51.550;5.418;2023-04-25T00:06:53;10.60;65.00
32296;DHT22;18781;51.550;5.418;2023-04-25T00:09:19;10.60;65.20
32296;DHT22;18781;51.550;5.418;2023-04-25T00:11:45;10.60;65.20
32296;DHT22;18781;51.550;5.418;2023-04-25T00:14:11;10.60;65.20
32296;DHT22;18781;51.550;5.418;2023-04-25T00:16:36;10.60;65.30
32296;DHT22;18781;51.550;5.418;2023-04-25T00:19:02;10.60;65.30
32296;DHT22;18781;51.550;5.418;2023-04-25T00:21:29;10.60;65.30
32296;DHT22;18781;51.550;5.418;2023-04-25T00:23:56;10.60;65.30
32296;DHT22;18781;51.550;5.418;2023-04-25T00:26:22;10.60;65.40
32296;DHT22;18781;51.550;5.418;2023-04-25T00:28:48;10.60;65.50
32296;DHT22;18781;51.550;5.418;2023-04-25T00:31:14;10.60;65.50
32296;DHT22;18781;51.550;5.418;2023-04-25T00:33:40;10.60;65.50
32296;DHT22;18781;51.550;5.418;2023-04-25T00:36:06;10.60;65.40
32296;DHT22;18781;51.550;5.418;2023-04-25T00:38:31;10.60;65.40
32296;DHT22;18781;51.550;5.418;2023-04-25T00:40:57;10.60;65.40
32296;DHT22;18781;51.550;5.418;2023-04-25T00:43:26;10.60;65.40
32296;DHT22;18781;51.550;5.418;2023-04-25T00:45:52;10.60;65.50
32296;DHT22;18781;51.550;5.418;2023-04-25T00:48:18;10.50;65.30
32296;DHT22;18781;51.550;5.418;2023-04-25T00:50:52;10.50;65.30
32296;DHT22;18781;51.550;5.418;2023-04-25T00:53:18;10.50;65.70
32296;DHT22;18781;51.550;5.418;2023-04-25T00:55:44;10.50;65.50
32296;DHT22;18781;51.550;5.418;2023-04-25T00:58:10;10.50;65.40
32296;DHT22;18781;51.550;5.418;2023-04-25T01:00:36;10.50;65.40
32296;DHT22;18781;51.550;5.418;2023-04-25T01:03:02;10.50;65.40
32296;DHT22;18781;51.550;5.418;2023-04-25T01:05:29;10.50;65.50
32296;DHT22;18781;51.550;5.418;2023-04-25T01:07:54;10.40;65.40
32296;DHT22;18781;51.550;5.418;2023-04-25T01:10:21;10.40;65.40
32296;DHT22;18781;51.550;5.418;2023-04-25T01:12:46;10.40;65.40
32296;DHT22;18781;51.550;5.418;2023-04-25T01:15:12;10.40;65.50
32296;DHT22;18781;51.550;5.418;2023-04-25T01:17:38;10.40;65.60
32296;DHT22;18781;51.550;5.418;2023-04-25T01:20:05;10.40;65.60
32296;DHT22;18781;51.550;5.418;2023-04-25T01:22:33;10.40;65.60
32296;DHT22;18781;51.550;5.418;2023-04-25T01:24:59;10.30;65.60
32296;DHT22;18781;51.550;5.418;2023-04-25T01:27:25;10.30;65.70
32296;DHT22;18781;51.550;5.418;2023-04-25T01:29:51;10.30;65.80
32296;DHT22;18781;51.550;5.418;2023-04-25T01:32:17;10.30;65.90
32296;DHT22;18781;51.550;5.418;2023-04-25T01:34:43;10.30;66.00
32296;DHT22;18781;51.550;5.418;2023-04-25T01:37:09;10.30;66.10
32296;DHT22;18781;51.550;5.418;2023-04-25T01:39:35;10.30;66.60
32296;DHT22;18781;51.550;5.418;2023-04-25T01:42:00;10.30;66.20
32296;DHT22;18781;51.550;5.418;2023-04-25T01:44:26;10.20;66.20
32296;DHT22;18781;51.550;5.418;2023-04-25T01:46:52;10.30;66.30
32296;DHT22;18781;51.550;5.418;2023-04-25T01:49:18;10.20;66.10
32296;DHT22;18781;51.550;5.418;2023-04-25T01:51:43;10.30;66.10
32296;DHT22;18781;51.550;5.418;2023-04-25T01:54:10;10.30;66.20
32296;DHT22;18781;51.550;5.418;2023-04-25T01:56:37;10.30;66.20
32296;DHT22;18781;51.550;5.418;2023-04-25T01:59:04;10.30;66.20
32296;DHT22;18781;51.550;5.418;2023-04-25T02:01:30;10.30;66.20
32296;DHT22;18781;51.550;5.418;2023-04-25T02:03:56;10.30;66.30
32296;DHT22;18781;51.550;5.418;2023-04-25T02:06:21;10.20;66.20
32296;DHT22;18781;51.550;5.418;2023-04-25T02:08:47;10.30;66.30
32296;DHT22;18781;51.550;5.418;2023-04-25T02:11:13;10.20;66.20
32296;DHT22;18781;51.550;5.418;2023-04-25T02:13:38;10.30;66.30
32296;DHT22;18781;51.550;5.418;2023-04-25T02:16:04;10.20;66.20
32296;DHT22;18781;51.550;5.418;2023-04-25T02:18:30;10.20;66.10
32296;DHT22;18781;51.550;5.418;2023-04-25T02:20:58;10.20;66.00
32296;DHT22;18781;51.550;5.418;2023-04-25T02:23:24;10.20;65.90
32296;DHT22;18781;51.550;5.418;2023-04-25T02:25:50;10.20;65.80
32296;DHT22;18781;51.550;5.418;2023-04-25T02:28:16;10.20;65.80
32296;DHT22;18781;51.550;5.418;2023-04-25T02:30:41;10.20;65.90
32296;DHT22;18781;51.550;5.418;2023-04-25T02:33:07;10.10;65.70
32296;DHT22;18781;51.550;5.418;2023-04-25T02:35:32;10.10;65.70
32296;DHT22;18781;51.550;5.418;2023-04-25T02:37:58;10.10;65.70
32296;DHT22;18781;51.550;5.418;2023-04-25T02:40:23;10.00;65.70
32296;DHT22;18781;51.550;5.418;2023-04-25T02:42:49;10.00;65.80
32296;DHT22;18781;51.550;5.418;2023-04-25T02:45:15;10.00;65.90
32296;DHT22;18781;51.550;5.418;2023-04-25T02:47:40;10.00;66.00
32296;DHT22;18781;51.550;5.418;2023-04-25T02:50:06;9.90;65.80
32296;DHT22;18781;51.550;5.418;2023-04-25T02:52:32;9.90;65.90
32296;DHT22;18781;51.550;5.418;2023-04-25T02:54:58;9.90;66.00
32296;DHT22;18781;51.550;5.418;2023-04-25T02:57:23;9.90;66.00
32296;DHT22;18781;51.550;5.418;2023-04-25T02:59:49;9.90;66.00
32296;DHT22;18781;51.550;5.418;2023-04-25T03:02:14;9.90;66.10
32296;DHT22;18781;51.550;5.418;2023-04-25T03:04:40;9.90;66.10
32296;DHT22;18781;51.550;5.418;2023-04-25T03:07:06;9.80;66.00
32296;DHT22;18781;51.550;5.418;2023-04-25T03:09:31;9.80;66.00
32296;DHT22;18781;51.550;5.418;2023-04-25T03:11:57;9.80;66.10
32296;DHT22;18781;51.550;5.418;2023-04-25T03:14:22;9.80;66.10
32296;DHT22;18781;51.550;5.418;2023-04-25T03:16:48;9.80;66.10
32296;DHT22;18781;51.550;5.418;2023-04-25T03:19:13;9.70;66.10
32296;DHT22;18781;51.550;5.418;2023-04-25T03:21:41;9.70;66.20
32296;DHT22;18781;51.550;5.418;2023-04-25T03:24:07;9.70;66.20
32296;DHT22;18781;51.550;5.418;2023-04-25T03:26:32;9.70;66.30
32296;DHT22;18781;51.550;5.418;2023-04-25T03:28:58;9.70;66.40
32296;DHT22;18781;51.550;5.418;2023-04-25T03:31:23;9.70;66.50
32296;DHT22;18781;51.550;5.418;2023-04-25T03:33:49;9.70;66.60
32296;DHT22;18781;51.550;5.418;2023-04-25T03:36:14;9.70;66.60
32296;DHT22;18781;51.550;5.418;2023-04-25T03:38:40;9.60;66.70
32296;DHT22;18781;51.550;5.418;2023-04-25T03:41:08;9.60;66.70
32296;DHT22;18781;51.550;5.418;2023-04-25T03:43:34;9.60;66.80
32296;DHT22;18781;51.550;5.418;2023-04-25T03:46:01;9.60;66.80
32296;DHT22;18781;51.550;5.418;2023-04-25T03:48:26;9.60;66.90
32296;DHT22;18781;51.550;5.418;2023-04-25T03:50:53;9.60;66.90
32296;DHT22;18781;51.550;5.418;2023-04-25T03:53:18;9.60;67.00
32296;DHT22;18781;51.550;5.418;2023-04-25T03:55:44;9.60;67.00
32296;DHT22;18781;51.550;5.418;2023-04-25T03:58:10;9.60;67.00
32296;DHT22;18781;51.550;5.418;2023-04-25T04:00:36;9.60;67.10
32296;DHT22;18781;51.550;5.418;2023-04-25T04:03:01;9.60;67.10
32296;DHT22;18781;51.550;5.418;2023-04-25T04:05:27;9.60;67.10
32296;DHT22;18781;51.550;5.418;2023-04-25T04:07:54;9.60;67.20
32296;DHT22;18781;51.550;5.418;2023-04-25T04:10:19;9.60;67.10
32296;DHT22;18781;51.550;5.418;2023-04-25T04:12:45;9.60;67.10
32296;DHT22;18781;51.550;5.418;2023-04-25T04:15:11;9.60;67.10
32296;DHT22;18781;51.550;5.418;2023-04-25T04:17:37;9.60;67.10
32296;DHT22;18781;51.550;5.418;2023-04-25T04:20:03;9.60;67.00
32296;DHT22;18781;51.550;5.418;2023-04-25T04:22:29;9.60;67.00
32296;DHT22;18781;51.550;5.418;2023-04-25T04:24:55;9.60;67.50
32296;DHT22;18781;51.550;5.418;2023-04-25T04:27:22;9.60;66.90
32296;DHT22;18781;51.550;5.418;2023-04-25T04:29:48;9.60;67.00
32296;DHT22;18781;51.550;5.418;2023-04-25T04:32:14;9.60;67.00
32296;DHT22;18781;51.550;5.418;2023-04-25T04:34:40;9.60;67.10
32296;DHT22;18781;51.550;5.418;2023-04-25T04:37:06;9.60;67.00
32296;DHT22;18781;51.550;5.418;2023-04-25T04:39:36;9.60;67.00
32296;DHT22;18781;51.550;5.418;2023-04-25T04:42:01;9.60;67.10
32296;DHT22;18781;51.550;5.418;2023-04-25T04:44:27;9.60;67.00
32296;DHT22;18781;51.550;5.418;2023-04-25T04:46:54;9.60;67.00
32296;DHT22;18781;51.550;5.418;2023-04-25T04:49:19;9.60;66.90
32296;DHT22;18781;51.550;5.418;2023-04-25T04:51:45;9.60;66.80
32296;DHT22;18781;51.550;5.418;2023-04-25T04:54:11;9.60;66.80
32296;DHT22;18781;51.550;5.418;2023-04-25T04:56:36;9.60;66.80
32296;DHT22;18781;51.550;5.418;2023-04-25T04:59:02;9.60;66.90
32296;DHT22;18781;51.550;5.418;2023-04-25T05:01:28;9.60;67.00
32296;DHT22;18781;51.550;5.418;2023-04-25T05:03:55;9.60;67.00
32296;DHT22;18781;51.550;5.418;2023-04-25T05:06:26;9.60;67.00
32296;DHT22;18781;51.550;5.418;2023-04-25T05:08:52;9.60;67.00
32296;DHT22;18781;51.550;5.418;2023-04-25T05:11:18;9.60;67.00
32296;DHT22;18781;51.550;5.418;2023-04-25T05:13:44;9.70;67.00
32296;DHT22;18781;51.550;5.418;2023-04-25T05:16:11;9.70;67.00
32296;DHT22;18781;51.550;5.418;2023-04-25T05:18:36;9.70;66.90
32296;DHT22;18781;51.550;5.418;2023-04-25T05:21:02;9.70;66.90
32296;DHT22;18781;51.550;5.418;2023-04-25T05:23:28;9.70;66.70
32296;DHT22;18781;51.550;5.418;2023-04-25T05:25:55;9.70;66.40
32296;DHT22;18781;51.550;5.418;2023-04-25T05:28:21;9.70;66.50
32296;DHT22;18781;51.550;5.418;2023-04-25T05:30:46;9.70;66.40
32296;DHT22;18781;51.550;5.418;2023-04-25T05:33:12;9.70;66.50
32296;DHT22;18781;51.550;5.418;2023-04-25T05:35:37;9.70;66.70
32296;DHT22;18781;51.550;5.418;2023-04-25T05:38:03;9.70;66.80
32296;DHT22;18781;51.550;5.418;2023-04-25T05:40:29;9.70;66.70
32296;DHT22;18781;51.550;5.418;2023-04-25T05:42:54;9.80;66.50
32296;DHT22;18781;51.550;5.418;2023-04-25T05:45:20;9.80;66.30
32296;DHT22;18781;51.550;5.418;2023-04-25T05:47:45;9.80;66.30
32296;DHT22;18781;51.550;5.418;2023-04-25T05:50:11;9.80;66.30
32296;DHT22;18781;51.550;5.418;2023-04-25T05:52:37;9.80;66.30
32296;DHT22;18781;51.550;5.418;2023-04-25T05:55:02;9.80;66.20
32296;DHT22;18781;51.550;5.418;2023-04-25T05:57:28;9.80;66.40
32296;DHT22;18781;51.550;5.418;2023-04-25T05:59:54;9.80;66.40
32296;DHT22;18781;51.550;5.418;2023-04-25T06:02:20;9.90;66.40
32296;DHT22;18781;51.550;5.418;2023-04-25T06:04:48;9.90;66.40
32296;DHT22;18781;51.550;5.418;2023-04-25T06:07:14;9.90;66.30
32296;DHT22;18781;51.550;5.418;2023-04-25T06:09:40;9.90;66.20
32296;DHT22;18781;51.550;5.418;2023-04-25T06:12:06;9.90;66.20
32296;DHT22;18781;51.550;5.418;2023-04-25T06:14:32;10.00;65.90
32296;DHT22;18781;51.550;5.418;2023-04-25T06:16:58;10.00;66.00
32296;DHT22;18781;51.550;5.418;2023-04-25T06:19:24;9.90;66.00
32296;DHT22;18781;51.550;5.418;2023-04-25T06:21:49;10.00;65.80
32296;DHT22;18781;51.550;5.418;2023-04-25T06:24:15;10.00;65.50
32296;DHT22;18781;51.550;5.418;2023-04-25T06:26:40;10.00;65.00
32296;DHT22;18781;51.550;5.418;2023-04-25T06:29:06;10.00;65.20
32296;DHT22;18781;51.550;5.418;2023-04-25T06:31:31;10.00;65.10
32296;DHT22;18781;51.550;5.418;2023-04-25T06:33:58;10.00;65.10
32296;DHT22;18781;51.550;5.418;2023-04-25T06:36:24;10.10;65.30
32296;DHT22;18781;51.550;5.418;2023-04-25T06:38:52;10.10;65.20
32296;DHT22;18781;51.550;5.418;2023-04-25T06:41:18;10.10;64.00
32296;DHT22;18781;51.550;5.418;2023-04-25T06:43:44;10.20;64.20
32296;DHT22;18781;51.550;5.418;2023-04-25T06:46:10;10.20;64.30
32296;DHT22;18781;51.550;5.418;2023-04-25T06:48:36;10.20;64.10
32296;DHT22;18781;51.550;5.418;2023-04-25T06:51:01;10.20;63.80
32296;DHT22;18781;51.550;5.418;2023-04-25T06:53:27;10.30;64.10
32296;DHT22;18781;51.550;5.418;2023-04-25T06:55:53;10.20;64.00
32296;DHT22;18781;51.550;5.418;2023-04-25T06:58:18;10.30;64.10
32296;DHT22;18781;51.550;5.418;2023-04-25T07:00:44;10.30;63.70
32296;DHT22;18781;51.550;5.418;2023-04-25T07:03:09;10.40;63.20
32296;DHT22;18781;51.550;5.418;2023-04-25T07:05:35;10.40;61.80
32296;DHT22;18781;51.550;5.418;2023-04-25T07:08:01;10.50;62.90
32296;DHT22;18781;51.550;5.418;2023-04-25T07:10:27;10.50;61.80
32296;DHT22;18781;51.550;5.418;2023-04-25T07:12:52;10.50;62.60
32296;DHT22;18781;51.550;5.418;2023-04-25T07:15:18;10.50;62.00
32296;DHT22;18781;51.550;5.418;2023-04-25T07:17:43;10.60;62.00
32296;DHT22;18781;51.550;5.418;2023-04-25T07:20:09;10.60;61.80
32296;DHT22;18781;51.550;5.418;2023-04-25T07:22:35;10.70;61.00
32296;DHT22;18781;51.550;5.418;2023-04-25T07:25:01;10.70;61.40
32296;DHT22;18781;51.550;5.418;2023-04-25T07:27:27;10.70;61.90
32296;DHT22;18781;51.550;5.418;2023-04-25T07:29:53;10.80;61.00
32296;DHT22;18781;51.550;5.418;2023-04-25T07:32:19;10.80;59.80
32296;DHT22;18781;51.550;5.418;2023-04-25T07:34:45;10.90;59.00
32296;DHT22;18781;51.550;5.418;2023-04-25T07:37:10;10.90;59.10
32296;DHT22;18781;51.550;5.418;2023-04-25T07:39:36;10.90;59.60
32296;DHT22;18781;51.550;5.418;2023-04-25T07:42:02;10.90;58.40
32296;DHT22;18781;51.550;5.418;2023-04-25T07:44:29;11.00;59.40
32296;DHT22;18781;51.550;5.418;2023-04-25T07:46:55;11.00;59.10
32296;DHT22;18781;51.550;5.418;2023-04-25T07:49:21;11.00;59.50
32296;DHT22;18781;51.550;5.418;2023-04-25T07:51:47;11.10;59.10
32296;DHT22;18781;51.550;5.418;2023-04-25T07:54:14;11.10;59.10
32296;DHT22;18781;51.550;5.418;2023-04-25T07:56:41;11.20;58.70
32296;DHT22;18781;51.550;5.418;2023-04-25T07:59:06;11.30;59.20
32296;DHT22;18781;51.550;5.418;2023-04-25T08:01:34;11.30;59.00
32296;DHT22;18781;51.550;5.418;2023-04-25T08:04:00;11.40;59.10
32296;DHT22;18781;51.550;5.418;2023-04-25T08:06:25;11.50;58.40
32296;DHT22;18781;51.550;5.418;2023-04-25T08:08:51;11.50;58.50
32296;DHT22;18781;51.550;5.418;2023-04-25T08:11:17;11.50;58.10
32296;DHT22;18781;51.550;5.418;2023-04-25T08:13:42;11.60;57.60
32296;DHT22;18781;51.550;5.418;2023-04-25T08:16:08;11.70;56.80
32296;DHT22;18781;51.550;5.418;2023-04-25T08:18:33;11.70;55.80
32296;DHT22;18781;51.550;5.418;2023-04-25T08:20:59;11.70;56.30
32296;DHT22;18781;51.550;5.418;2023-04-25T08:23:25;11.70;56.80
32296;DHT22;18781;51.550;5.418;2023-04-25T08:25:50;11.70;57.00
32296;DHT22;18781;51.550;5.418;2023-04-25T08:28:16;11.70;56.70
32296;DHT22;18781;51.550;5.418;2023-04-25T08:30:42;11.70;56.80
32296;DHT22;18781;51.550;5.418;2023-04-25T08:33:07;11.70;57.30
32296;DHT22;18781;51.550;5.418;2023-04-25T08:35:33;11.80;56.50
32296;DHT22;18781;51.550;5.418;2023-04-25T08:37:59;11.80;56.10
32296;DHT22;18781;51.550;5.418;2023-04-25T08:40:28;11.80;56.60
32296;DHT22;18781;51.550;5.418;2023-04-25T08:42:56;11.80;57.20
32296;DHT22;18781;51.550;5.418;2023-04-25T08:45:22;11.80;58.20
32296;DHT22;18781;51.550;5.418;2023-04-25T08:47:51;11.80;56.90
32296;DHT22;18781;51.550;5.418;2023-04-25T08:50:18;11.90;56.60
32296;DHT22;18781;51.550;5.418;2023-04-25T08:52:47;11.90;57.40
32296;DHT22;18781;51.550;5.418;2023-04-25T08:55:13;12.00;57.30
32296;DHT22;18781;51.550;5.418;2023-04-25T08:57:42;11.90;57.90
32296;DHT22;18781;51.550;5.418;2023-04-25T09:00:09;12.00;57.80
32296;DHT22;18781;51.550;5.418;2023-04-25T09:02:36;12.00;56.30
32296;DHT22;18781;51.550;5.418;2023-04-25T09:05:02;12.10;56.70
32296;DHT22;18781;51.550;5.418;2023-04-25T09:07:30;12.10;55.70
32296;DHT22;18781;51.550;5.418;2023-04-25T09:09:55;12.10;56.10
32296;DHT22;18781;51.550;5.418;2023-04-25T09:12:21;12.10;56.00
32296;DHT22;18781;51.550;5.418;2023-04-25T09:15:08;12.20;55.20
32296;DHT22;18781;51.550;5.418;2023-04-25T09:17:34;12.20;55.70
32296;DHT22;18781;51.550;5.418;2023-04-25T09:20:07;12.20;54.40
32296;DHT22;18781;51.550;5.418;2023-04-25T09:22:34;12.30;53.20
32296;DHT22;18781;51.550;5.418;2023-04-25T09:25:03;12.30;54.20
32296;DHT22;18781;51.550;5.418;2023-04-25T09:27:30;12.40;54.00
32296;DHT22;18781;51.550;5.418;2023-04-25T09:29:59;12.40;53.80
32296;DHT22;18781;51.550;5.418;2023-04-25T09:32:27;12.50;54.30
32296;DHT22;18781;51.550;5.418;2023-04-25T09:34:57;12.50;54.60
32296;DHT22;18781;51.550;5.418;2023-04-25T09:37:25;12.60;53.80
32296;DHT22;18781;51.550;5.418;2023-04-25T09:39:59;12.70;53.70
32296;DHT22;18781;51.550;5.418;2023-04-25T09:42:26;12.70;54.10
32296;DHT22;18781;51.550;5.418;2023-04-25T09:44:54;12.80;53.20
32296;DHT22;18781;51.550;5.418;2023-04-25T09:47:22;12.80;53.20
32296;DHT22;18781;51.550;5.418;2023-04-25T09:49:49;12.90;52.80
32296;DHT22;18781;51.550;5.418;2023-04-25T09:52:16;12.90;52.70
32296;DHT22;18781;51.550;5.418;2023-04-25T09:54:43;12.90;52.60
32296;DHT22;18781;51.550;5.418;2023-04-25T10:02:15;12.90;50.80
32296;DHT22;18781;51.550;5.418;2023-04-25T10:04:41;12.90;51.10
32296;DHT22;18781;51.550;5.418;2023-04-25T10:07:11;12.90;51.70
32296;DHT22;18781;51.550;5.418;2023-04-25T10:09:38;12.90;50.90
32296;DHT22;18781;51.550;5.418;2023-04-25T10:12:08;13.00;50.20
32296;DHT22;18781;51.550;5.418;2023-04-25T10:14:34;13.00;51.00
32296;DHT22;18781;51.550;5.418;2023-04-25T10:17:00;13.00;50.20
32296;DHT22;18781;51.550;5.418;2023-04-25T10:19:27;13.10;50.30
32296;DHT22;18781;51.550;5.418;2023-04-25T10:22:46;13.20;48.00
32296;DHT22;18781;51.550;5.418;2023-04-25T10:24:46;13.20;49.60
32296;DHT22;18781;51.550;5.418;2023-04-25T10:27:13;13.30;50.00
32296;DHT22;18781;51.550;5.418;2023-04-25T10:29:41;13.30;51.20
32296;DHT22;18781;51.550;5.418;2023-04-25T10:32:08;13.40;48.00
32296;DHT22;18781;51.550;5.418;2023-04-25T10:34:39;13.50;48.20
32296;DHT22;18781;51.550;5.418;2023-04-25T10:37:05;13.40;46.90
32296;DHT22;18781;51.550;5.418;2023-04-25T10:39:33;13.50;47.50
32296;DHT22;18781;51.550;5.418;2023-04-25T10:42:01;13.50;46.80
32296;DHT22;18781;51.550;5.418;2023-04-25T10:44:31;13.50;47.20
32296;DHT22;18781;51.550;5.418;2023-04-25T10:46:58;13.50;47.80
32296;DHT22;18781;51.550;5.418;2023-04-25T10:49:34;13.50;48.80
32296;DHT22;18781;51.550;5.418;2023-04-25T10:54:53;13.50;49.20
32296;DHT22;18781;51.550;5.418;2023-04-25T10:59:58;13.60;48.20
32296;DHT22;18781;51.550;5.418;2023-04-25T11:02:26;13.60;48.10
32296;DHT22;18781;51.550;5.418;2023-04-25T11:04:53;13.60;48.60
32296;DHT22;18781;51.550;5.418;2023-04-25T11:07:53;13.60;48.70
32296;DHT22;18781;51.550;5.418;2023-04-25T11:10:33;13.60;48.70
32296;DHT22;18781;51.550;5.418;2023-04-25T11:13:00;13.60;48.50
32296;DHT22;18781;51.550;5.418;2023-04-25T11:15:27;13.50;47.80
32296;DHT22;18781;51.550;5.418;2023-04-25T11:17:53;13.50;48.10
32296;DHT22;18781;51.550;5.418;2023-04-25T11:20:19;13.50;47.80
32296;DHT22;18781;51.550;5.418;2023-04-25T11:22:46;13.40;47.90
32296;DHT22;18781;51.550;5.418;2023-04-25T11:25:13;13.40;48.30
32296;DHT22;18781;51.550;5.418;2023-04-25T11:27:52;13.30;48.30
32296;DHT22;18781;51.550;5.418;2023-04-25T11:30:19;13.30;48.00
32296;DHT22;18781;51.550;5.418;2023-04-25T11:32:45;13.20;48.40
32296;DHT22;18781;51.550;5.418;2023-04-25T11:35:11;13.20;47.80
32296;DHT22;18781;51.550;5.418;2023-04-25T11:37:39;13.10;47.20
32296;DHT22;18781;51.550;5.418;2023-04-25T11:40:05;13.10;47.90
32296;DHT22;18781;51.550;5.418;2023-04-25T11:42:41;13.10;48.60
32296;DHT22;18781;51.550;5.418;2023-04-25T11:45:08;13.10;48.80
32296;DHT22;18781;51.550;5.418;2023-04-25T11:47:34;13.10;48.30
32296;DHT22;18781;51.550;5.418;2023-04-25T11:50:02;13.10;47.80
32296;DHT22;18781;51.550;5.418;2023-04-25T11:52:44;13.10;48.10
32296;DHT22;18781;51.550;5.418;2023-04-25T11:55:17;13.10;48.60
32296;DHT22;18781;51.550;5.418;2023-04-25T11:57:45;13.20;49.00
32296;DHT22;18781;51.550;5.418;2023-04-25T12:00:19;13.20;48.10
32296;DHT22;18781;51.550;5.418;2023-04-25T12:02:52;13.30;48.30
32296;DHT22;18781;51.550;5.418;2023-04-25T12:05:19;13.30;47.10
32296;DHT22;18781;51.550;5.418;2023-04-25T12:07:45;13.40;46.60
32296;DHT22;18781;51.550;5.418;2023-04-25T12:10:13;13.40;45.70
32296;DHT22;18781;51.550;5.418;2023-04-25T12:12:47;13.50;46.30
32296;DHT22;18781;51.550;5.418;2023-04-25T12:17:41;13.60;47.90
32296;DHT22;18781;51.550;5.418;2023-04-25T12:20:12;13.70;48.00
32296;DHT22;18781;51.550;5.418;2023-04-25T12:22:41;13.80;45.00
32296;DHT22;18781;51.550;5.418;2023-04-25T12:25:12;13.90;44.50
32296;DHT22;18781;51.550;5.418;2023-04-25T12:27:39;13.90;43.40
32296;DHT22;18781;51.550;5.418;2023-04-25T12:30:09;13.90;44.60
32296;DHT22;18781;51.550;5.418;2023-04-25T12:32:36;13.90;45.30
32296;DHT22;18781;51.550;5.418;2023-04-25T12:35:01;14.00;44.30
32296;DHT22;18781;51.550;5.418;2023-04-25T12:37:28;14.00;42.20
32296;DHT22;18781;51.550;5.418;2023-04-25T12:39:54;14.10;43.20
32296;DHT22;18781;51.550;5.418;2023-04-25T12:42:19;14.10;42.00
32296;DHT22;18781;51.550;5.418;2023-04-25T12:44:45;14.20;43.20
32296;DHT22;18781;51.550;5.418;2023-04-25T12:47:11;14.20;42.80
32296;DHT22;18781;51.550;5.418;2023-04-25T12:49:37;14.20;43.70
32296;DHT22;18781;51.550;5.418;2023-04-25T12:52:03;14.30;44.10
32296;DHT22;18781;51.550;5.418;2023-04-25T12:54:28;14.30;43.60
32296;DHT22;18781;51.550;5.418;2023-04-25T12:56:54;14.40;44.60
32296;DHT22;18781;51.550;5.418;2023-04-25T12:59:20;14.40;45.20
32296;DHT22;18781;51.550;5.418;2023-04-25T13:01:46;14.40;45.30
32296;DHT22;18781;51.550;5.418;2023-04-25T13:04:12;14.40;44.00
32296;DHT22;18781;51.550;5.418;2023-04-25T13:06:38;14.30;44.80
32296;DHT22;18781;51.550;5.418;2023-04-25T13:09:03;14.10;45.30
32296;DHT22;18781;51.550;5.418;2023-04-25T13:11:29;14.00;45.80
32296;DHT22;18781;51.550;5.418;2023-04-25T13:13:55;14.00;46.20
32296;DHT22;18781;51.550;5.418;2023-04-25T13:16:21;13.90;46.20
32296;DHT22;18781;51.550;5.418;2023-04-25T13:18:46;13.90;46.20
32296;DHT22;18781;51.550;5.418;2023-04-25T13:21:12;13.90;46.30
32296;DHT22;18781;51.550;5.418;2023-04-25T13:23:38;13.90;46.40
32296;DHT22;18781;51.550;5.418;2023-04-25T13:26:03;13.90;46.20
32296;DHT22;18781;51.550;5.418;2023-04-25T13:28:29;14.00;46.20
32296;DHT22;18781;51.550;5.418;2023-04-25T13:30:54;14.00;45.40
32296;DHT22;18781;51.550;5.418;2023-04-25T13:33:20;14.10;44.70
32296;DHT22;18781;51.550;5.418;2023-04-25T13:35:47;14.10;44.30
32296;DHT22;18781;51.550;5.418;2023-04-25T13:38:23;14.20;45.00
32296;DHT22;18781;51.550;5.418;2023-04-25T13:40:49;14.20;45.50
32296;DHT22;18781;51.550;5.418;2023-04-25T13:43:15;14.30;45.70
32296;DHT22;18781;51.550;5.418;2023-04-25T13:45:41;14.30;45.10
32296;DHT22;18781;51.550;5.418;2023-04-25T13:48:07;14.40;43.70
32296;DHT22;18781;51.550;5.418;2023-04-25T13:50:32;14.40;43.70
32296;DHT22;18781;51.550;5.418;2023-04-25T13:52:58;14.40;45.30
32296;DHT22;18781;51.550;5.418;2023-04-25T13:55:23;14.40;45.50
32296;DHT22;18781;51.550;5.418;2023-04-25T13:57:49;14.40;46.00
32296;DHT22;18781;51.550;5.418;2023-04-25T14:00:15;14.40;45.60
32296;DHT22;18781;51.550;5.418;2023-04-25T14:02:40;14.50;46.30
32296;DHT22;18781;51.550;5.418;2023-04-25T14:05:06;14.50;45.90
32296;DHT22;18781;51.550;5.418;2023-04-25T14:07:36;14.60;45.80
32296;DHT22;18781;51.550;5.418;2023-04-25T14:10:03;14.60;46.00
32296;DHT22;18781;51.550;5.418;2023-04-25T14:12:30;14.60;45.60
32296;DHT22;18781;51.550;5.418;2023-04-25T14:14:55;14.50;45.50
32296;DHT22;18781;51.550;5.418;2023-04-25T14:17:21;14.50;45.20
32296;DHT22;18781;51.550;5.418;2023-04-25T14:19:46;14.50;45.30
32296;DHT22;18781;51.550;5.418;2023-04-25T14:22:13;14.40;45.10
32296;DHT22;18781;51.550;5.418;2023-04-25T14:24:39;14.40;45.50
32296;DHT22;18781;51.550;5.418;2023-04-25T14:27:05;14.40;45.50
32296;DHT22;18781;51.550;5.418;2023-04-25T14:29:31;14.40;45.60
32296;DHT22;18781;51.550;5.418;2023-04-25T14:31:56;14.40;45.80
32296;DHT22;18781;51.550;5.418;2023-04-25T14:34:24;14.50;45.80
32296;DHT22;18781;51.550;5.418;2023-04-25T14:36:49;14.50;46.20
32296;DHT22;18781;51.550;5.418;2023-04-25T14:39:15;14.50;45.20
32296;DHT22;18781;51.550;5.418;2023-04-25T14:41:42;14.50;45.20
32296;DHT22;18781;51.550;5.418;2023-04-25T14:44:07;14.50;45.80
32296;DHT22;18781;51.550;5.418;2023-04-25T14:46:33;14.50;44.70
32296;DHT22;18781;51.550;5.418;2023-04-25T14:48:59;14.50;44.40
32296;DHT22;18781;51.550;5.418;2023-04-25T14:51:25;14.50;44.50
32296;DHT22;18781;51.550;5.418;2023-04-25T14:53:51;14.50;44.80
32296;DHT22;18781;51.550;5.418;2023-04-25T14:56:17;14.50;45.40
32296;DHT22;18781;51.550;5.418;2023-04-25T14:58:44;14.50;45.30
32296;DHT22;18781;51.550;5.418;2023-04-25T15:01:11;14.50;45.20
32296;DHT22;18781;51.550;5.418;2023-04-25T15:03:36;14.50;45.40
32296;DHT22;18781;51.550;5.418;2023-04-25T15:06:02;14.50;43.20
32296;DHT22;18781;51.550;5.418;2023-04-25T15:08:28;14.50;43.90
32296;DHT22;18781;51.550;5.418;2023-04-25T15:10:53;14.50;43.60
32296;DHT22;18781;51.550;5.418;2023-04-25T15:13:19;14.60;42.20
32296;DHT22;18781;51.550;5.418;2023-04-25T15:15:44;14.60;42.50
32296;DHT22;18781;51.550;5.418;2023-04-25T15:18:17;14.60;43.50
32296;DHT22;18781;51.550;5.418;2023-04-25T15:20:42;14.60;42.50
32296;DHT22;18781;51.550;5.418;2023-04-25T15:23:08;14.60;43.20
32296;DHT22;18781;51.550;5.418;2023-04-25T15:25:33;14.70;42.90
32296;DHT22;18781;51.550;5.418;2023-04-25T15:27:59;14.80;42.30
32296;DHT22;18781;51.550;5.418;2023-04-25T15:30:25;14.80;42.10
32296;DHT22;18781;51.550;5.418;2023-04-25T15:32:50;14.80;41.80
32296;DHT22;18781;51.550;5.418;2023-04-25T15:35:16;14.70;42.50
32296;DHT22;18781;51.550;5.418;2023-04-25T15:37:42;14.70;42.80
32296;DHT22;18781;51.550;5.418;2023-04-25T15:40:10;14.60;43.00
32296;DHT22;18781;51.550;5.418;2023-04-25T15:42:38;14.50;43.60
32296;DHT22;18781;51.550;5.418;2023-04-25T15:45:05;14.50;43.40